Time;durP1;ratioP1;P1;durP2;ratioP2;P2;SDS_P1;SDS_P2;PMS_P1;PMS_P2;Temp;Humidity;BMP_temperature;BMP_pressure;BME280_temperature;BME280_humidity;BME280_pressure;Samples;Min_cycle;Max_cycle;Signal;HPM_P1;HPM_P2
2023/09/23 00:00:35;;;;;;;14.88;6.60;;;;;;;17.23;48.39;100650.84;5052765;28;20479;-59
2023/09/23 00:03:01;;;;;;;16.48;7.43;;;;;;;17.18;48.69;100645.03;5052144;28;20060;-60
2023/09/23 00:05:26;;;;;;;15.32;6.97;;;;;;;17.15;48.62;100656.16;5052067;28;20491;-63
2023/09/23 00:07:52;;;;;;;11.65;6.60;;;;;;;17.16;48.47;100653.28;5052251;28;20025;-63
2023/09/23 00:10:18;;;;;;;9.88;7.07;;;;;;;17.15;48.53;100650.75;5052535;28;20075;-62
2023/09/23 00:12:45;;;;;;;17.13;6.75;;;;;;;17.14;48.65;100658.00;5051558;28;20144;-62
2023/09/23 00:15:11;;;;;;;10.60;6.63;;;;;;;16.96;48.66;100630.81;5051902;28;20112;-62
2023/09/23 00:17:37;;;;;;;16.17;6.72;;;;;;;17.10;48.92;100655.72;5052287;28;20049;-62
2023/09/23 00:20:06;;;;;;;10.48;6.57;;;;;;;17.02;48.83;100661.88;5052149;28;20029;-61
2023/09/23 00:22:31;;;;;;;12.07;6.82;;;;;;;17.04;48.92;100655.31;5052272;28;20033;-60
2023/09/23 00:24:58;;;;;;;10.05;6.55;;;;;;;17.06;48.20;100663.28;5051739;28;20031;-63
2023/09/23 00:27:27;;;;;;;13.43;6.88;;;;;;;16.84;48.68;100619.31;5052012;28;20447;-62
2023/09/23 00:29:52;;;;;;;11.80;6.80;;;;;;;16.98;48.57;100650.47;5052113;28;20029;-62
2023/09/23 00:32:18;;;;;;;13.30;6.90;;;;;;;17.00;48.72;100653.03;5051762;28;20414;-63
2023/09/23 00:34:44;;;;;;;10.27;6.45;;;;;;;17.00;48.62;100653.88;5051325;28;20036;-61
2023/09/23 00:37:10;;;;;;;21.77;7.28;;;;;;;16.96;49.01;100646.16;5053299;28;20053;-62
2023/09/23 00:39:40;;;;;;;14.20;7.05;;;;;;;16.92;49.21;100651.03;5055619;28;20025;-62
2023/09/23 00:42:07;;;;;;;11.45;7.40;;;;;;;16.91;49.14;100652.03;5055508;28;20105;-62
2023/09/23 00:44:34;;;;;;;14.13;7.40;;;;;;;16.86;49.34;100657.00;5055175;28;20090;-63
2023/09/23 00:47:00;;;;;;;14.80;7.53;;;;;;;16.86;49.36;100652.47;5055502;28;20083;-61
2023/09/23 00:49:27;;;;;;;14.77;7.13;;;;;;;16.83;49.13;100658.16;5055649;28;20393;-65
2023/09/23 00:51:52;;;;;;;14.48;7.15;;;;;;;16.78;49.79;100653.19;5055298;28;20033;-62
2023/09/23 00:54:21;;;;;;;13.73;6.68;;;;;;;16.78;49.74;100639.66;5054809;28;20095;-63
2023/09/23 00:56:48;;;;;;;12.50;7.32;;;;;;;16.79;49.48;100657.59;5055242;28;20037;-63
2023/09/23 00:59:17;;;;;;;12.65;7.30;;;;;;;16.57;49.52;100614.63;5055435;28;20040;-62
2023/09/23 01:01:43;;;;;;;11.90;7.57;;;;;;;16.78;49.42;100655.88;5054525;28;20191;-62
2023/09/23 01:04:09;;;;;;;13.23;7.32;;;;;;;16.76;49.61;100652.47;5054774;28;20113;-62
2023/09/23 01:06:35;;;;;;;16.20;7.15;;;;;;;16.70;50.21;100652.19;5054685;28;20076;-62
2023/09/23 01:09:06;;;;;;;15.00;8.27;;;;;;;16.71;49.93;100654.75;5054631;28;20115;-62
2023/09/23 01:11:33;;;;;;;17.00;7.68;;;;;;;16.68;49.97;100652.34;5055063;28;20051;-63
2023/09/23 01:13:58;;;;;;;17.77;7.45;;;;;;;16.61;50.02;100641.25;5054517;28;20084;-62
2023/09/23 01:16:24;;;;;;;16.00;7.55;;;;;;;16.59;50.24;100654.06;5054627;28;20072;-63
2023/09/23 01:18:50;;;;;;;17.08;6.78;;;;;;;16.62;50.25;100644.78;5054802;28;20044;-62
2023/09/23 01:21:16;;;;;;;16.00;7.22;;;;;;;16.60;50.33;100652.19;5053358;28;20064;-62
2023/09/23 01:23:44;;;;;;;11.68;7.03;;;;;;;16.53;50.51;100640.25;5054739;28;20029;-62
2023/09/23 01:26:11;;;;;;;16.33;7.40;;;;;;;16.58;50.51;100651.47;5054414;28;20025;-61
2023/09/23 01:28:37;;;;;;;11.70;7.70;;;;;;;16.52;50.52;100647.53;5054493;28;20087;-61
2023/09/23 01:31:04;;;;;;;11.23;7.40;;;;;;;16.52;50.61;100652.06;5054965;28;20044;-62
2023/09/23 01:33:30;;;;;;;15.35;7.13;;;;;;;16.31;50.78;100623.31;5054272;28;20091;-62
2023/09/23 01:36:02;;;;;;;17.73;8.02;;;;;;;16.50;50.80;100657.59;5054081;28;20032;-62
2023/09/23 01:38:32;;;;;;;15.70;7.32;;;;;;;16.46;50.63;100654.34;5054474;28;20503;-63
2023/09/23 01:41:00;;;;;;;14.57;7.22;;;;;;;16.39;50.73;100655.88;5053328;28;20025;-62
2023/09/23 01:43:26;;;;;;;15.00;7.85;;;;;;;16.40;50.96;100657.63;5053949;28;20503;-62
2023/09/23 01:45:55;;;;;;;23.27;7.85;;;;;;;16.40;50.78;100652.22;5054356;28;20352;-62
2023/09/23 01:48:22;;;;;;;16.17;7.28;;;;;;;16.38;50.64;100654.19;5053796;28;20036;-63
2023/09/23 01:50:49;;;;;;;14.38;7.25;;;;;;;16.35;50.97;100659.88;5053955;28;20025;-62
2023/09/23 01:53:19;;;;;;;14.88;6.95;;;;;;;16.31;50.92;100653.03;5053716;28;20025;-63
2023/09/23 01:55:45;;;;;;;14.32;7.68;;;;;;;16.34;51.11;100658.16;5054040;28;20029;-62
2023/09/23 01:58:10;;;;;;;12.02;7.03;;;;;;;15.96;50.98;100595.00;5054030;28;20029;-62
2023/09/23 02:00:36;;;;;;;13.70;7.47;;;;;;;16.23;51.03;100650.22;5054003;28;20367;-62
2023/09/23 02:03:02;;;;;;;16.65;7.20;;;;;;;16.27;51.24;100667.84;5053843;28;20029;-62
2023/09/23 02:05:28;;;;;;;10.98;7.15;;;;;;;16.25;51.29;100667.13;5054196;28;20036;-63
2023/09/23 02:07:54;;;;;;;10.90;7.38;;;;;;;16.19;50.94;100652.31;5053851;28;20029;-63
2023/09/23 02:10:23;;;;;;;13.35;7.32;;;;;;;16.24;51.32;100665.41;5053490;28;20120;-63
2023/09/23 02:12:50;;;;;;;11.45;6.63;;;;;;;16.17;51.34;100655.19;5053758;28;20080;-62
2023/09/23 02:15:16;;;;;;;14.13;7.38;;;;;;;16.15;51.67;100656.31;5053985;28;20061;-61
2023/09/23 02:17:47;;;;;;;16.75;7.13;;;;;;;16.16;51.39;100661.59;5053570;28;20040;-61
2023/09/23 02:20:19;;;;;;;18.25;7.25;;;;;;;16.11;51.54;100658.41;5053185;28;20106;-62
2023/09/23 02:22:55;;;;;;;16.17;7.55;;;;;;;16.17;51.49;100670.53;5053611;28;20032;-61
2023/09/23 02:25:25;;;;;;;9.57;7.15;;;;;;;16.12;51.52;100667.41;5053673;28;20414;-61
2023/09/23 02:27:52;;;;;;;14.65;7.60;;;;;;;16.08;51.63;100658.69;5053495;28;20029;-62
2023/09/23 02:30:18;;;;;;;11.60;7.05;;;;;;;16.09;51.54;100659.56;5052886;28;20098;-63
2023/09/23 02:32:46;;;;;;;15.68;7.63;;;;;;;16.06;51.48;100655.28;5053383;28;20040;-62
2023/09/23 02:35:15;;;;;;;9.90;7.03;;;;;;;16.07;51.57;100671.38;5053609;28;20345;-60
2023/09/23 02:37:46;;;;;;;15.93;6.88;;;;;;;16.09;51.67;100670.38;5053309;28;20033;-61
2023/09/23 02:40:14;;;;;;;13.20;7.40;;;;;;;16.05;51.59;100669.78;5052868;28;20097;-62
2023/09/23 02:42:42;;;;;;;11.43;6.88;;;;;;;15.97;51.73;100656.97;5053191;28;20033;-61
2023/09/23 02:45:12;;;;;;;14.85;7.40;;;;;;;16.04;51.84;100673.47;5053614;28;20060;-62
2023/09/23 02:47:39;;;;;;;13.23;6.88;;;;;;;15.99;51.74;100671.19;5053400;28;20032;-62
2023/09/23 02:50:09;;;;;;;13.13;7.80;;;;;;;15.98;51.83;100668.66;5052587;28;20102;-62
2023/09/23 02:52:36;;;;;;;14.38;7.25;;;;;;;15.96;51.85;100670.63;5053176;28;20036;-62
2023/09/23 02:55:02;;;;;;;21.08;7.82;;;;;;;15.95;52.03;100663.53;5052870;28;20036;-63
2023/09/23 02:57:30;;;;;;;14.32;7.20;;;;;;;15.92;52.03;100673.63;5052816;28;20029;-62
2023/09/23 02:59:58;;;;;;;20.33;7.70;;;;;;;15.88;52.11;100661.34;5051795;28;20036;-64
2023/09/23 03:02:28;;;;;;;13.90;7.30;;;;;;;15.87;52.07;100664.19;5052488;28;20520;-61
2023/09/23 03:04:58;;;;;;;20.75;7.72;;;;;;;15.88;52.21;100674.84;5052439;28;20032;-63
2023/09/23 03:07:32;;;;;;;14.25;7.00;;;;;;;15.90;52.20;100675.56;5052656;28;20450;-62
2023/09/23 03:10:00;;;;;;;15.00;6.88;;;;;;;15.84;52.37;100673.41;5052392;28;20055;-62
2023/09/23 03:12:29;;;;;;;14.73;7.68;;;;;;;15.80;52.38;100680.06;5052804;28;20044;-62
2023/09/23 03:14:56;;;;;;;14.38;7.68;;;;;;;15.84;52.36;100678.78;5052235;28;20448;-61
2023/09/23 03:17:22;;;;;;;15.70;8.05;;;;;;;15.84;52.49;100680.66;5052536;28;20095;-63
2023/09/23 03:19:51;;;;;;;13.60;7.70;;;;;;;15.65;52.71;100639.94;5052650;28;20056;-62
2023/09/23 03:22:21;;;;;;;15.20;7.40;;;;;;;15.84;52.55;100683.34;5052250;28;20044;-62
2023/09/23 03:24:48;;;;;;;12.55;7.72;;;;;;;15.87;52.30;100678.50;5052535;28;20025;-62
2023/09/23 03:27:15;;;;;;;16.63;8.18;;;;;;;15.87;52.62;100678.50;5052699;28;20112;-62
2023/09/23 03:29:41;;;;;;;12.80;7.65;;;;;;;15.88;52.41;100680.25;5052520;28;20033;-63
2023/09/23 03:32:07;;;;;;;15.70;7.55;;;;;;;15.89;52.55;100675.72;5052212;28;20440;-62
2023/09/23 03:34:34;;;;;;;13.10;7.50;;;;;;;15.91;52.50;100677.31;5052504;28;20032;-63
2023/09/23 03:37:00;;;;;;;15.57;7.88;;;;;;;15.97;52.41;100677.75;5052162;28;20041;-63
2023/09/23 03:39:26;;;;;;;18.10;8.40;;;;;;;16.05;52.08;100681.47;5052161;28;20466;-62
2023/09/23 03:41:52;;;;;;;14.05;7.50;;;;;;;16.10;51.90;100689.13;5052483;28;20436;-63
2023/09/23 03:44:17;;;;;;;11.63;7.57;;;;;;;16.19;51.68;100685.63;5052317;28;20033;-62
2023/09/23 03:46:47;;;;;;;14.60;8.27;;;;;;;16.27;51.65;100686.75;5052218;28;20067;-59
2023/09/23 03:49:13;;;;;;;20.63;8.05;;;;;;;16.30;51.47;100697.28;5052376;28;20106;-62
2023/09/23 03:51:39;;;;;;;19.33;7.88;;;;;;;16.40;51.18;100694.59;5052709;28;20340;-62
2023/09/23 03:54:06;;;;;;;13.25;7.82;;;;;;;16.47;51.05;100695.72;5052070;28;20040;-63
2023/09/23 03:56:33;;;;;;;16.50;8.07;;;;;;;16.56;50.93;100692.19;5052101;28;20407;-62
2023/09/23 03:59:06;;;;;;;15.95;8.60;;;;;;;16.89;50.06;100700.84;5052278;28;20507;-62
2023/09/23 04:01:38;;;;;;;14.18;7.40;;;;;;;17.83;47.86;100698.31;5052498;28;20083;-63
2023/09/23 04:04:06;;;;;;;14.93;7.80;;;;;;;19.18;44.66;100695.81;5051991;28;20456;-62
2023/09/23 04:06:33;;;;;;;14.20;8.10;;;;;;;20.37;41.69;100685.13;5052133;28;20091;-63
2023/09/23 04:08:59;;;;;;;13.75;7.60;;;;;;;21.32;39.72;100691.13;5052284;28;20432;-63
2023/09/23 04:11:28;;;;;;;16.77;8.13;;;;;;;22.25;38.05;100684.31;5054258;28;20033;-62
2023/09/23 04:13:53;;;;;;;12.82;8.20;;;;;;;23.05;36.25;100688.47;5055554;28;20057;-62
2023/09/23 04:16:19;;;;;;;13.18;7.65;;;;;;;23.82;34.65;100685.63;5055612;28;20079;-63
2023/09/23 04:18:46;;;;;;;12.88;7.82;;;;;;;24.61;33.08;100691.41;5056244;28;20029;-58
2023/09/23 04:21:12;;;;;;;14.60;6.97;;;;;;;25.41;32.05;100696.69;5056487;28;20351;-61
2023/09/23 04:23:39;;;;;;;13.00;7.53;;;;;;;25.96;30.76;100693.22;5055524;28;20517;-61
2023/09/23 04:26:05;;;;;;;17.90;8.10;;;;;;;26.38;29.54;100684.94;5055523;28;20032;-63
2023/09/23 04:28:31;;;;;;;12.77;6.78;;;;;;;26.89;29.06;100688.19;5055936;28;20029;-62
2023/09/23 04:31:00;;;;;;;12.52;6.95;;;;;;;27.26;27.95;100677.59;5055840;28;20029;-62
2023/09/23 04:33:27;;;;;;;13.20;6.72;;;;;;;27.90;27.39;100690.78;5055569;28;20040;-63
2023/09/23 04:35:56;;;;;;;14.30;7.35;;;;;;;28.64;26.80;100698.63;5055173;28;20040;-64
2023/09/23 04:38:24;;;;;;;11.88;6.75;;;;;;;29.09;26.01;100692.19;5055583;28;20057;-62
2023/09/23 04:40:50;;;;;;;12.27;7.03;;;;;;;29.85;24.82;100703.06;5055961;28;20021;-62
2023/09/23 04:43:16;;;;;;;15.57;6.45;;;;;;;30.69;23.68;100696.00;5055570;28;20043;-63
2023/09/23 04:45:42;;;;;;;9.60;6.57;;;;;;;30.89;23.03;100701.19;5055337;28;20036;-62
2023/09/23 04:48:08;;;;;;;13.10;6.75;;;;;;;31.30;22.70;100704.13;5055528;28;20075;-62
2023/09/23 04:50:35;;;;;;;18.00;6.47;;;;;;;31.71;22.21;100717.22;5055359;28;20097;-65
2023/09/23 04:53:02;;;;;;;17.80;6.13;;;;;;;32.25;21.40;100711.44;5053969;28;20402;-62
2023/09/23 04:55:28;;;;;;;14.07;6.20;;;;;;;32.96;20.53;100710.22;5054873;28;20025;-62
2023/09/23 04:57:55;;;;;;;15.02;6.63;;;;;;;33.59;19.59;100712.00;5054723;28;20420;-62
2023/09/23 05:00:21;;;;;;;14.15;5.82;;;;;;;33.47;19.68;100715.75;5054593;28;20033;-62
2023/09/23 05:02:51;;;;;;;11.98;5.68;;;;;;;33.45;19.32;100700.44;5055257;28;20040;-63
2023/09/23 05:05:18;;;;;;;9.45;6.07;;;;;;;34.20;19.27;100717.50;5055119;28;20116;-61
2023/09/23 05:07:44;;;;;;;12.57;6.05;;;;;;;34.80;18.29;100713.94;5055317;28;20033;-62
2023/09/23 05:10:11;;;;;;;9.77;5.60;;;;;;;35.61;17.51;100709.25;5054577;28;20060;-63
2023/09/23 05:12:37;;;;;;;8.63;5.65;;;;;;;36.47;16.92;100710.94;5054663;28;20053;-63
2023/09/23 05:15:03;;;;;;;12.82;5.97;;;;;;;37.03;16.18;100689.81;5054734;28;20052;-64
2023/09/23 05:17:30;;;;;;;10.65;6.22;;;;;;;37.50;15.88;100715.69;5054687;28;20125;-64
2023/09/23 05:19:56;;;;;;;10.85;6.45;;;;;;;37.73;15.96;100711.38;5054490;28;20438;-64
2023/09/23 05:22:22;;;;;;;13.02;6.45;;;;;;;38.20;15.02;100720.41;5054245;28;20040;-65
2023/09/23 05:24:48;;;;;;;8.73;5.65;;;;;;;38.77;14.68;100720.03;5054933;28;20125;-68
2023/09/23 05:27:14;;;;;;;10.07;5.55;;;;;;;39.35;13.89;100700.75;5054932;28;20025;-63
2023/09/23 05:29:42;;;;;;;14.60;6.20;;;;;;;40.24;13.51;100720.09;5054930;28;20029;-63
2023/09/23 05:32:10;;;;;;;11.88;6.55;;;;;;;40.33;13.42;100709.91;5054543;28;20029;-63
2023/09/23 05:34:39;;;;;;;10.75;6.45;;;;;;;40.78;12.58;100717.09;5053910;28;20037;-64
2023/09/23 05:37:06;;;;;;;13.02;6.53;;;;;;;41.33;12.66;100731.25;5054417;28;20032;-63
2023/09/23 05:39:34;;;;;;;10.55;6.00;;;;;;;41.95;12.13;100720.75;5054370;28;20068;-63
2023/09/23 05:42:01;;;;;;;10.45;6.05;;;;;;;42.27;11.98;100720.91;5053805;28;20079;-62
2023/09/23 05:44:27;;;;;;;14.00;6.05;;;;;;;42.59;11.45;100721.84;5054084;28;20402;-63
2023/09/23 05:46:52;;;;;;;15.27;6.10;;;;;;;42.97;11.43;100717.81;5054384;28;20032;-63
2023/09/23 05:49:18;;;;;;;11.23;5.95;;;;;;;43.08;10.81;100722.00;5054550;28;20040;-64
2023/09/23 05:51:45;;;;;;;9.38;6.18;;;;;;;43.50;10.77;100721.72;5054204;28;20033;-64
2023/09/23 05:54:11;;;;;;;14.07;5.93;;;;;;;44.07;10.38;100733.31;5054225;28;20467;-64
2023/09/23 05:56:37;;;;;;;14.27;5.65;;;;;;;44.19;10.00;100719.41;5054355;28;20517;-64
2023/09/23 05:59:05;;;;;;;10.85;5.30;;;;;;;43.94;10.46;100721.84;5054334;28;20053;-64
2023/09/23 06:01:31;;;;;;;14.00;6.05;;;;;;;43.85;10.25;100732.28;5054253;28;20166;-62
2023/09/23 06:03:58;;;;;;;14.90;5.85;;;;;;;44.07;10.08;100728.50;5053062;28;20029;-63
2023/09/23 06:06:23;;;;;;;11.18;5.60;;;;;;;44.08;9.88;100720.88;5054371;28;20025;-65
2023/09/23 06:08:50;;;;;;;13.13;5.80;;;;;;;44.49;9.95;100718.72;5053379;28;20032;-63
2023/09/23 06:11:16;;;;;;;10.75;4.90;;;;;;;44.99;9.28;100723.84;5053672;28;20033;-63
2023/09/23 06:13:41;;;;;;;10.55;5.78;;;;;;;45.43;9.08;100725.69;5053814;28;20060;-64
2023/09/23 06:16:07;;;;;;;13.75;5.80;;;;;;;45.85;8.98;100722.13;5053030;28;20047;-63
2023/09/23 06:18:33;;;;;;;11.77;5.38;;;;;;;46.12;8.69;100723.66;5053898;28;20036;-63
2023/09/23 06:21:03;;;;;;;9.05;5.38;;;;;;;46.37;8.63;100720.09;5053621;28;20040;-63
2023/09/23 06:23:28;;;;;;;16.50;5.88;;;;;;;46.71;8.16;100727.44;5053856;28;20029;-64
2023/09/23 06:26:01;;;;;;;11.68;5.60;;;;;;;47.10;8.35;100723.56;5053782;28;20519;-62
2023/09/23 06:28:27;;;;;;;12.57;5.25;;;;;;;47.13;8.24;100720.00;5053870;28;20065;-63
2023/09/23 06:30:52;;;;;;;15.00;5.45;;;;;;;47.62;7.71;100729.72;5053610;28;20422;-62
2023/09/23 06:33:19;;;;;;;14.80;6.38;;;;;;;47.91;7.81;100727.81;5053784;28;20029;-64
2023/09/23 06:35:45;;;;;;;22.35;5.63;;;;;;;48.05;7.55;100733.13;5053545;28;20021;-63
2023/09/23 06:38:12;;;;;;;10.48;5.50;;;;;;;48.34;7.42;100731.13;5053438;28;20028;-63
2023/09/23 06:40:38;;;;;;;11.80;5.80;;;;;;;48.95;7.06;100724.34;5053418;28;20029;-63
2023/09/23 06:43:04;;;;;;;12.73;5.47;;;;;;;48.99;7.16;100722.44;5053395;28;20443;-63
2023/09/23 06:45:29;;;;;;;14.73;5.18;;;;;;;49.39;6.50;100726.31;5053243;28;20028;-63
2023/09/23 06:47:55;;;;;;;9.77;5.18;;;;;;;49.51;7.14;100714.03;5053438;28;20064;-62
2023/09/23 06:50:21;;;;;;;25.65;6.00;;;;;;;49.75;7.08;100717.81;5053533;28;20472;-64
2023/09/23 06:52:46;;;;;;;12.00;6.10;;;;;;;49.97;6.47;100692.72;5052336;28;20029;-63
2023/09/23 06:55:12;;;;;;;15.50;5.63;;;;;;;50.04;6.49;100718.47;5053117;28;20084;-63
2023/09/23 06:57:37;;;;;;;15.68;6.07;;;;;;;50.20;6.52;100714.75;5053419;28;20040;-63
2023/09/23 07:00:06;;;;;;;17.05;5.88;;;;;;;50.36;6.66;100706.94;5052958;28;20029;-63
2023/09/23 07:02:32;;;;;;;17.30;6.07;;;;;;;50.56;6.36;100715.47;5052999;28;20029;-64
2023/09/23 07:04:57;;;;;;;13.20;5.38;;;;;;;50.72;6.19;100715.38;5052998;28;20120;-64
2023/09/23 07:07:23;;;;;;;13.75;5.82;;;;;;;50.63;5.88;100720.50;5053096;28;20031;-62
2023/09/23 07:09:48;;;;;;;8.93;5.20;;;;;;;50.64;6.28;100717.25;5052932;28;20481;-63
2023/09/23 07:12:14;;;;;;;12.10;5.03;;;;;;;50.47;5.96;100712.03;5052577;28;20224;-64
2023/09/23 07:14:41;;;;;;;11.57;5.20;;;;;;;50.48;5.99;100702.28;5052756;28;20124;-63
2023/09/23 07:17:08;;;;;;;13.13;5.75;;;;;;;50.60;5.98;100716.38;5052785;28;20064;-63
2023/09/23 07:19:34;;;;;;;11.88;5.47;;;;;;;50.71;5.89;100704.38;5052683;28;20082;-63
2023/09/23 07:22:01;;;;;;;15.95;5.22;;;;;;;50.78;6.06;100684.53;5052829;28;20037;-64
2023/09/23 07:24:27;;;;;;;13.45;5.68;;;;;;;50.62;6.33;100713.97;5052559;28;20086;-63
2023/09/23 07:26:57;;;;;;;16.20;5.63;;;;;;;50.91;6.42;100711.66;5052842;28;20094;-64
2023/09/23 07:29:24;;;;;;;15.98;5.07;;;;;;;50.73;6.24;100713.38;5052526;28;20439;-64
2023/09/23 07:31:50;;;;;;;10.43;4.53;;;;;;;50.45;5.72;100709.56;5052789;28;20428;-63
2023/09/23 07:34:16;;;;;;;8.65;4.53;;;;;;;49.97;6.33;100706.94;5052751;28;20037;-63
2023/09/23 07:36:44;;;;;;;12.13;5.03;;;;;;;49.63;6.66;100718.78;5052545;28;20116;-64
2023/09/23 07:39:15;;;;;;;11.77;4.72;;;;;;;49.05;6.86;100707.94;5052516;28;20111;-63
2023/09/23 07:41:41;;;;;;;7.07;4.00;;;;;;;48.62;7.05;100705.59;5052406;28;20021;-63
2023/09/23 07:44:06;;;;;;;6.45;4.65;;;;;;;47.99;7.18;100709.81;5052449;28;20045;-63
2023/09/23 07:46:32;;;;;;;10.25;4.60;;;;;;;47.10;7.59;100709.38;5054363;28;20086;-63
2023/09/23 07:48:58;;;;;;;12.50;4.35;;;;;;;45.00;8.74;100700.06;5055478;28;20440;-62
2023/09/23 07:51:24;;;;;;;7.75;4.60;;;;;;;42.16;10.77;100707.06;5054961;28;20083;-62
2023/09/23 07:53:53;;;;;;;9.65;4.43;;;;;;;39.40;12.37;100692.31;5055712;28;20124;-62
2023/09/23 07:56:18;;;;;;;7.45;4.15;;;;;;;37.17;14.24;100707.63;5055218;28;20116;-63
2023/09/23 07:58:44;;;;;;;13.02;4.28;;;;;;;35.27;16.09;100703.19;5055577;28;20120;-63
2023/09/23 08:01:09;;;;;;;12.35;4.63;;;;;;;33.84;17.32;100717.06;5055508;28;20044;-63
2023/09/23 08:03:35;;;;;;;12.43;5.15;;;;;;;32.67;18.75;100703.88;5055466;28;20025;-62
2023/09/23 08:06:00;;;;;;;11.63;4.75;;;;;;;31.54;19.72;100706.06;5055520;28;20032;-61
2023/09/23 08:08:26;;;;;;;12.57;4.57;;;;;;;30.73;20.87;100719.31;5056324;28;20029;-63
2023/09/23 08:10:53;;;;;;;9.57;5.15;;;;;;;30.02;21.37;100719.03;5056007;28;20075;-63
2023/09/23 08:13:20;;;;;;;11.88;4.63;;;;;;;29.44;22.25;100716.47;5055966;28;20060;-63
2023/09/23 08:15:46;;;;;;;17.25;4.88;;;;;;;29.08;22.64;100726.31;5056026;28;20052;-63
2023/09/23 08:18:15;;;;;;;14.43;4.68;;;;;;;28.52;23.22;100673.72;5056008;28;20375;-61
2023/09/23 08:20:40;;;;;;;10.15;4.80;;;;;;;28.26;23.71;100680.25;5056223;28;20033;-63
2023/09/23 08:23:06;;;;;;;18.67;5.15;;;;;;;28.20;23.91;100712.25;5055955;28;20124;-62
2023/09/23 08:25:33;;;;;;;8.15;4.57;;;;;;;27.89;24.11;100695.41;5055883;28;20047;-62
2023/09/23 08:28:01;;;;;;;12.95;5.20;;;;;;;27.77;24.58;100710.94;5055809;28;20041;-61
2023/09/23 08:30:26;;;;;;;10.05;5.07;;;;;;;27.72;24.85;100702.47;5056131;28;20060;-65
2023/09/23 08:32:53;;;;;;;10.40;4.95;;;;;;;27.66;24.56;100709.69;5055839;28;20130;-63
2023/09/23 08:35:18;;;;;;;11.95;4.40;;;;;;;27.65;24.57;100710.75;5055502;28;20087;-63
2023/09/23 08:37:45;;;;;;;8.32;4.57;;;;;;;27.54;24.53;100694.91;5054710;28;20372;-62
2023/09/23 08:40:12;;;;;;;10.57;4.78;;;;;;;27.29;24.40;100666.19;5055846;28;20321;-62
2023/09/23 08:42:38;;;;;;;6.50;4.43;;;;;;;27.39;25.04;100695.13;5055541;28;20037;-63
2023/09/23 08:45:08;;;;;;;11.52;4.90;;;;;;;27.44;24.64;100696.19;5055489;28;20613;-62
2023/09/23 08:47:37;;;;;;;9.25;4.65;;;;;;;27.44;25.01;100684.31;5055262;28;20115;-65
2023/09/23 08:50:07;;;;;;;11.88;4.82;;;;;;;27.35;24.77;100690.06;5055259;28;20029;-61
2023/09/23 08:52:33;;;;;;;12.90;4.80;;;;;;;27.22;25.07;100688.16;5055355;28;20029;-62
2023/09/23 08:55:00;;;;;;;8.50;4.28;;;;;;;27.30;24.99;100689.84;5055394;28;20372;-63
2023/09/23 08:57:25;;;;;;;11.40;4.50;;;;;;;27.34;24.73;100684.75;5054104;28;20507;-62
2023/09/23 08:59:51;;;;;;;12.10;4.72;;;;;;;27.40;24.79;100688.56;5055178;28;20116;-62
2023/09/23 09:02:22;;;;;;;9.13;4.38;;;;;;;27.39;24.55;100687.72;5054986;28;20031;-63
2023/09/23 09:04:51;;;;;;;10.98;4.47;;;;;;;27.22;24.09;100670.81;5055159;28;20064;-64
2023/09/23 09:07:16;;;;;;;10.55;5.13;;;;;;;27.20;24.62;100672.94;5055158;28;20040;-63
2023/09/23 09:09:42;;;;;;;19.33;5.68;;;;;;;27.23;24.79;100672.50;5055273;28;20033;-62
2023/09/23 09:12:09;;;;;;;7.78;4.63;;;;;;;27.20;24.39;100670.19;5055212;28;20151;-63
2023/09/23 09:14:34;;;;;;;11.70;5.05;;;;;;;27.26;25.02;100671.25;5054761;28;20474;-62
2023/09/23 09:17:00;;;;;;;10.02;4.50;;;;;;;27.04;24.81;100650.34;5055180;28;20037;-63
2023/09/23 09:19:26;;;;;;;7.10;4.60;;;;;;;27.19;24.72;100682.25;5054095;28;20040;-66
2023/09/23 09:21:53;;;;;;;10.13;4.57;;;;;;;27.08;24.89;100670.00;5054671;28;20655;-63
2023/09/23 09:24:18;;;;;;;11.10;4.45;;;;;;;27.02;24.89;100670.84;5054610;28;20132;-62
2023/09/23 09:26:44;;;;;;;14.10;5.00;;;;;;;26.99;24.32;100677.59;5054715;28;20108;-63
2023/09/23 09:29:11;;;;;;;8.48;4.25;;;;;;;26.98;24.85;100673.16;5054794;28;20113;-62
2023/09/23 09:31:38;;;;;;;6.88;3.78;;;;;;;26.93;24.23;100667.47;5054690;28;20037;-62
2023/09/23 09:34:11;;;;;;;7.68;4.25;;;;;;;26.66;24.42;100656.44;5054480;28;20064;-61
2023/09/23 09:36:38;;;;;;;13.80;4.40;;;;;;;26.75;24.21;100682.66;5054558;28;20116;-63
2023/09/23 09:39:12;;;;;;;12.90;4.40;;;;;;;26.59;24.58;100661.94;5054581;28;20065;-61
2023/09/23 09:41:50;;;;;;;8.60;4.68;;;;;;;26.70;24.87;100693.44;5054432;28;20029;-63
2023/09/23 09:44:16;;;;;;;8.70;3.80;;;;;;;26.60;24.89;100674.59;5053996;28;20482;-62
2023/09/23 09:46:43;;;;;;;10.80;4.22;;;;;;;26.70;24.20;100673.38;5054677;28;20025;-62
2023/09/23 09:49:09;;;;;;;7.88;4.30;;;;;;;26.73;23.74;100676.53;5054113;28;20090;-62
2023/09/23 09:51:35;;;;;;;10.52;4.20;;;;;;;26.68;24.00;100668.06;5054278;28;20033;-63
2023/09/23 09:54:05;;;;;;;16.52;4.65;;;;;;;26.75;24.11;100674.41;5054426;28;20033;-63
2023/09/23 09:56:33;;;;;;;10.13;3.75;;;;;;;26.75;24.44;100673.56;5054468;28;20085;-62
2023/09/23 09:59:00;;;;;;;7.57;4.00;;;;;;;26.68;24.23;100659.84;5054199;28;20032;-63
2023/09/23 10:01:26;;;;;;;6.30;4.28;;;;;;;26.86;24.19;100677.63;5054009;28;20352;-63
2023/09/23 10:03:53;;;;;;;7.50;3.80;;;;;;;26.91;24.20;100680.56;5054039;28;20084;-61
2023/09/23 10:06:19;;;;;;;12.75;4.25;;;;;;;26.86;24.49;100672.13;5054022;28;20080;-62
2023/09/23 10:08:48;;;;;;;9.88;4.50;;;;;;;26.80;24.21;100673.78;5053728;28;20032;-64
2023/09/23 10:11:14;;;;;;;7.63;4.28;;;;;;;26.84;23.96;100671.47;5053920;28;20036;-62
2023/09/23 10:13:42;;;;;;;5.90;3.95;;;;;;;26.80;24.60;100674.63;5053976;28;20064;-64
2023/09/23 10:16:19;;;;;;;5.30;4.10;;;;;;;26.90;24.44;100679.75;5053726;28;20052;-62
2023/09/23 10:18:55;;;;;;;8.00;4.10;;;;;;;27.03;24.61;100684.41;5053884;28;20040;-63
2023/09/23 10:21:22;;;;;;;7.10;4.10;;;;;;;27.01;24.03;100672.78;5053545;28;20024;-61
2023/09/23 10:23:51;;;;;;;10.85;4.10;;;;;;;27.05;23.34;100678.66;5053685;28;20025;-62
2023/09/23 10:26:23;;;;;;;10.77;4.10;;;;;;;26.91;23.25;100669.59;5053714;28;20121;-61
2023/09/23 10:28:59;;;;;;;7.55;4.10;;;;;;;26.84;23.82;100690.69;5053792;28;20102;-63
2023/09/23 10:31:26;;;;;;;12.23;4.30;;;;;;;26.70;23.89;100671.44;5053374;28;20029;-63
2023/09/23 10:33:53;;;;;;;9.10;4.32;;;;;;;26.69;23.77;100671.69;5053642;28;20180;-62
2023/09/23 10:36:20;;;;;;;11.27;4.22;;;;;;;26.63;23.23;100681.59;5053504;28;20032;-63
2023/09/23 10:38:46;;;;;;;9.52;3.83;;;;;;;26.49;23.37;100662.34;5053274;28;20025;-63
2023/09/23 10:41:11;;;;;;;7.32;3.65;;;;;;;26.42;23.21;100658.75;5052931;28;20467;-62
2023/09/23 10:43:37;;;;;;;11.07;3.95;;;;;;;26.34;23.48;100656.22;5053171;28;20443;-59
2023/09/23 10:46:02;;;;;;;6.97;4.15;;;;;;;26.29;23.37;100672.47;5053041;28;20120;-61
2023/09/23 10:48:29;;;;;;;13.30;4.55;;;;;;;26.26;23.28;100656.38;5052940;28;20036;-62
2023/09/23 10:50:55;;;;;;;11.88;3.85;;;;;;;26.20;23.03;100669.91;5053126;28;20033;-63
2023/09/23 10:53:21;;;;;;;4.88;4.10;;;;;;;26.18;23.48;100668.44;5053225;28;20052;-62
2023/09/23 10:55:48;;;;;;;9.20;3.80;;;;;;;26.20;23.73;100674.56;5053185;28;20358;-62
2023/09/23 10:58:14;;;;;;;11.27;4.00;;;;;;;26.17;23.45;100662.06;5053092;28;20028;-62
2023/09/23 11:00:41;;;;;;;7.95;4.00;;;;;;;26.14;23.74;100669.84;5052936;28;20024;-60
2023/09/23 11:03:10;;;;;;;6.40;3.78;;;;;;;26.06;24.00;100663.50;5053241;28;20033;-64
2023/09/23 11:05:37;;;;;;;7.68;3.60;;;;;;;26.09;24.11;100662.25;5053020;28;20436;-63
2023/09/23 11:08:05;;;;;;;10.90;3.95;;;;;;;26.14;23.86;100653.38;5052824;28;20122;-63
2023/09/23 11:10:32;;;;;;;8.65;3.85;;;;;;;26.15;23.99;100658.66;5052921;28;20061;-66
2023/09/23 11:12:58;;;;;;;7.28;4.22;;;;;;;26.17;23.65;100659.34;5052584;28;20056;-64
2023/09/23 11:15:23;;;;;;;8.90;4.40;;;;;;;26.21;24.13;100643.31;5052516;28;20045;-62
2023/09/23 11:17:53;;;;;;;8.65;4.30;;;;;;;26.19;23.87;100640.75;5052988;28;20043;-62